Andover, Ohio
Current Conditions -  °F | °C
As of 10:53 AM on Friday 28 Nov 2014 (Local Time) from KHZY Reporting Station
Overcast Overcast  
Wind Chill: 16°   Ceiling: 3600
Heat Index: 25°   Visibility: 10mi
Dew Point: 14°   Wind: 9mph
Humidity: 63%   Direction: 270°W
Pressure: 30.32"   Gusts: NA
Location:  41.61°N, 80.57°W
Report Text: KHZY 281553Z AUTO 27008KT 10SM FEW026 OVC036 M04/M10 A3032 RMK AO2 SNB06E15 SLP279 P0000 T10391100
Loading
Personal Weather Stations






























Interactive Weather Map New forecast layout! Learn more

10-Day Weather Forecast

Advertisements
Track Severe Weather on mobile